Time;durP1;ratioP1;P1;durP2;ratioP2;P2;SDS_P1;SDS_P2;PMS_P1;PMS_P2;Temp;Humidity;BMP_temperature;BMP_pressure;BME280_temperature;BME280_humidity;BME280_pressure;Samples;Min_cycle;Max_cycle;Signal;HPM_P1;HPM_P2
2022/09/09 00:01:20;;;;;;;;;;;;;;;18.09;68.61;100780.94;4955276;28;21142;-55
2022/09/09 00:03:53;;;;;;;;;;;;;;;18.07;68.81;100785.59;4965155;28;19945;-54
2022/09/09 00:06:25;;;;;;;;;;;;;;;18.03;68.57;100779.66;4951076;28;20658;-55
2022/09/09 00:08:59;;;;;;;;;;;;;;;18.03;68.86;100789.50;4959441;28;19922;-56
2022/09/09 00:11:41;;;;;;;;;;;;;;;18.02;68.98;100787.81;4951386;28;19977;-54
2022/09/09 00:14:13;;;;;;;;;;;;;;;18.01;68.79;100786.13;4960698;28;19937;-54
2022/09/09 00:16:41;;;;;;;;;;;;;;;18.02;68.87;100790.47;4960552;28;19926;-54
2022/09/09 00:19:17;;;;;;;;;;;;;;;18.00;69.02;100787.91;4955800;28;19926;-56
2022/09/09 00:22:05;;;;;;;;;;;;;;;17.99;68.85;100788.94;4970347;28;19934;-55
2022/09/09 00:24:36;;;;;;;;;;;;;;;17.98;68.88;100789.91;4953866;28;19922;-55
2022/09/09 00:27:08;;;;;;;;;;;;;;;17.97;68.92;100798.84;4952334;28;19992;-57
2022/09/09 00:29:45;;;;;;;;;;;;;;;17.96;69.10;100800.63;4954691;28;19947;-56
2022/09/09 00:32:15;;;;;;;;;;;;;;;17.94;69.11;100807.91;4950802;28;20353;-55
2022/09/09 00:34:47;;;;;;;;;;;;;;;17.93;69.17;100811.56;4953431;28;20579;-55
2022/09/09 00:37:13;;;;;;;;;;;;;;;17.93;69.18;100806.22;4954032;28;19922;-54
2022/09/09 00:39:44;;;;;;;;;;;;;;;17.94;69.17;100807.09;4958522;28;19965;-55
2022/09/09 00:42:23;;;;;;;;;;;;;;;17.93;69.22;100806.22;4960810;28;20711;-54
2022/09/09 00:44:48;;;;;;;;;;;;;;;17.94;69.20;100807.91;4961636;28;19973;-54
2022/09/09 00:47:30;;;;;;;;;;;;;;;17.94;69.12;100813.25;4962570;28;19930;-55
2022/09/09 00:49:59;;;;;;;;;;;;;;;17.94;69.25;100813.25;4966715;28;20497;-55
2022/09/09 00:52:36;;;;;;;;;;;;;;;17.94;69.27;100810.56;4960414;28;19988;-55
2022/09/09 00:55:21;;;;;;;;;;;;;;;17.96;69.23;100813.94;4961614;28;19932;-55
2022/09/09 00:57:51;;;;;;;;;;;;;;;17.95;69.15;100809.59;4956871;28;20004;-54
2022/09/09 01:00:27;;;;;;;;;;;;;;;17.95;69.04;100809.59;4959313;28;20297;-56
2022/09/09 01:02:58;;;;;;;;;;;;;;;17.93;69.11;100810.72;4971229;28;19928;-56
2022/09/09 01:05:23;;;;;;;;;;;;;;;17.91;69.15;100804.69;4965063;28;19973;-54
2022/09/09 01:07:49;;;;;;;;;;;;;;;17.89;69.32;100818.16;4957417;28;20009;-54
2022/09/09 01:10:24;;;;;;;;;;;;;;;17.88;69.33;100819.13;4951252;28;19933;-54
2022/09/09 01:12:51;;;;;;;;;;;;;;;17.88;69.27;100818.25;4960539;28;19925;-57
2022/09/09 01:15:21;;;;;;;;;;;;;;;17.86;69.32;100826.41;4959719;28;20370;-58
2022/09/09 01:17:51;;;;;;;;;;;;;;;17.86;69.42;100825.53;4961347;28;19922;-54
2022/09/09 01:20:20;;;;;;;;;;;;;;;17.85;69.21;100835.34;4959072;28;19930;-56
2022/09/09 01:23:18;;;;;;;;;;;;;;;17.82;69.38;100831.16;4962378;28;20020;-55
2022/09/09 01:25:43;;;;;;;;;;;;;;;17.82;69.18;100835.63;4963571;28;19918;-58
2022/09/09 01:28:10;;;;;;;;;;;;;;;17.80;69.20;100826.91;4964150;28;19929;-57
2022/09/09 01:30:38;;;;;;;;;;;;;;;17.79;69.38;100841.19;4961172;28;19938;-57
2022/09/09 01:33:04;;;;;;;;;;;;;;;17.77;69.46;100828.03;4965692;28;19925;-57
2022/09/09 01:35:43;;;;;;;;;;;;;;;17.75;69.41;100831.81;4966296;28;19922;-55
2022/09/09 01:38:09;;;;;;;;;;;;;;;17.73;69.30;100836.44;4962559;28;19921;-55
2022/09/09 01:40:35;;;;;;;;;;;;;;;17.70;69.24;100837.50;4952646;28;19932;-55
2022/09/09 01:43:00;;;;;;;;;;;;;;;17.67;69.29;100833.31;4957284;28;19932;-55
2022/09/09 01:45:26;;;;;;;;;;;;;;;17.65;69.31;100829.94;4958405;28;19985;-56
2022/09/09 01:47:54;;;;;;;;;;;;;;;17.65;69.28;100824.63;4957318;28;19992;-55
2022/09/09 01:50:20;;;;;;;;;;;;;;;17.65;69.48;100832.59;4966212;28;19926;-55
2022/09/09 01:52:47;;;;;;;;;;;;;;;17.65;69.50;100824.63;4960594;28;19926;-55
2022/09/09 01:55:12;;;;;;;;;;;;;;;17.65;69.32;100835.25;4957337;28;19933;-55
2022/09/09 01:57:57;;;;;;;;;;;;;;;17.67;69.30;100833.31;4959541;28;19922;-55
2022/09/09 02:00:22;;;;;;;;;;;;;;;17.68;69.25;100824.34;4956422;28;20009;-56
2022/09/09 02:03:00;;;;;;;;;;;;;;;17.71;69.37;100827.72;4963008;28;20021;-55
2022/09/09 02:05:37;;;;;;;;;;;;;;;17.72;69.34;100834.75;4966631;28;20420;-56
2022/09/09 02:08:11;;;;;;;;;;;;;;;17.71;69.51;100831.22;4959250;28;19922;-56
2022/09/09 02:10:36;;;;;;;;;;;;;;;17.71;69.27;100827.72;4957039;28;19948;-54
2022/09/09 02:13:08;;;;;;;;;;;;;;;17.69;69.50;100827.88;4954831;28;20314;-55
2022/09/09 02:15:52;;;;;;;;;;;;;;;17.67;69.35;100833.31;4963593;28;20485;-54
2022/09/09 02:18:26;;;;;;;;;;;;;;;17.65;69.48;100832.59;4962094;28;20195;-57
2022/09/09 02:20:52;;;;;;;;;;;;;;;17.63;69.42;100837.22;4963998;28;19929;-55
2022/09/09 02:23:19;;;;;;;;;;;;;;;17.61;69.37;100838.31;4958057;28;19930;-56
2022/09/09 02:25:46;;;;;;;;;;;;;;;17.59;69.36;100830.47;4962988;28;19926;-55
2022/09/09 02:28:13;;;;;;;;;;;;;;;17.56;69.41;100830.75;4963515;28;19934;-56
2022/09/09 02:30:39;;;;;;;;;;;;;;;17.54;69.54;100823.88;4960673;28;19923;-55
2022/09/09 02:33:07;;;;;;;;;;;;;;;17.50;69.52;100826.78;4964284;28;20056;-56
2022/09/09 02:35:37;;;;;;;;;;;;;;;17.48;69.53;100827.88;4958763;28;19926;-55
2022/09/09 02:38:05;;;;;;;;;;;;;;;17.46;69.37;100832.53;4953466;28;19929;-57
2022/09/09 02:40:30;;;;;;;;;;;;;;;17.42;69.25;100834.56;4961187;28;19929;-55
2022/09/09 02:42:55;;;;;;;;;;;;;;;17.40;69.39;100830.38;4955890;28;19966;-54
2022/09/09 02:45:24;;;;;;;;;;;;;;;17.37;69.33;100837.63;4958051;28;20137;-57
2022/09/09 02:47:55;;;;;;;;;;;;;;;17.36;69.40;100835.94;4954837;28;19933;-55
2022/09/09 02:50:34;;;;;;;;;;;;;;;17.33;69.47;100836.19;4956127;28;19929;-57
2022/09/09 02:53:05;;;;;;;;;;;;;;;17.33;69.28;100844.19;4955653;28;19933;-57
2022/09/09 02:55:43;;;;;;;;;;;;;;;17.34;69.29;100840.53;4958197;28;20329;-55
2022/09/09 02:58:11;;;;;;;;;;;;;;;17.34;69.31;100842.38;4963933;28;19950;-55
2022/09/09 03:00:37;;;;;;;;;;;;;;;17.34;69.48;100840.53;4962826;28;19926;-57
2022/09/09 03:03:06;;;;;;;;;;;;;;;17.36;69.56;100849.25;4955460;28;20511;-57
2022/09/09 03:05:32;;;;;;;;;;;;;;;17.36;69.38;100846.59;4956143;28;20409;-56
2022/09/09 03:07:58;;;;;;;;;;;;;;;17.36;69.27;100846.59;4956471;28;19936;-56
2022/09/09 03:10:23;;;;;;;;;;;;;;;17.37;69.31;100853.59;4960946;28;20443;-56
2022/09/09 03:12:48;;;;;;;;;;;;;;;17.39;69.30;100849.97;4954609;28;19926;-58
2022/09/09 03:15:14;;;;;;;;;;;;;;;17.40;69.56;100851.66;4957694;28;19933;-56
2022/09/09 03:17:40;;;;;;;;;;;;;;;17.42;69.39;100852.38;4955943;28;19930;-56
2022/09/09 03:20:05;;;;;;;;;;;;;;;17.43;69.56;100856.72;4965338;28;19926;-56
2022/09/09 03:22:31;;;;;;;;;;;;;;;17.43;69.26;100860.19;4956802;28;19937;-56
2022/09/09 03:24:56;;;;;;;;;;;;;;;17.45;69.60;100865.41;4956294;28;19946;-57
2022/09/09 03:27:22;;;;;;;;;;;;;;;17.46;69.61;100861.78;4960083;28;20461;-55
2022/09/09 03:29:49;;;;;;;;;;;;;;;17.46;69.54;100865.28;4953368;28;19929;-56
2022/09/09 03:32:17;;;;;;;;;;;;;;;17.47;69.59;100858.16;4959481;28;19930;-54
2022/09/09 03:34:42;;;;;;;;;;;;;;;17.48;69.65;100865.13;4957812;28;19930;-55
2022/09/09 03:37:07;;;;;;;;;;;;;;;17.47;69.51;100863.47;4965452;28;19933;-57
2022/09/09 03:39:33;;;;;;;;;;;;;;;17.47;69.31;100868.78;4965153;28;19933;-58
2022/09/09 03:41:58;;;;;;;;;;;;;;;17.48;69.43;100873.09;4960811;28;19926;-55
2022/09/09 03:44:23;;;;;;;;;;;;;;;17.48;69.58;100865.13;4956467;28;20167;-54
2022/09/09 03:46:48;;;;;;;;;;;;;;;17.48;69.47;100870.44;4961686;28;20286;-55
2022/09/09 03:49:15;;;;;;;;;;;;;;;17.48;69.43;100865.97;4955743;28;19926;-57
2022/09/09 03:51:40;;;;;;;;;;;;;;;17.46;69.34;100872.41;4958490;28;19917;-57
2022/09/09 03:54:08;;;;;;;;;;;;;;;17.45;69.41;100865.41;4956200;28;19965;-54
2022/09/09 03:56:33;;;;;;;;;;;;;;;17.44;69.55;100864.56;4956066;28;19933;-55
2022/09/09 03:58:59;;;;;;;;;;;;;;;17.43;69.44;100868.19;4959830;28;19922;-54
2022/09/09 04:01:24;;;;;;;;;;;;;;;17.44;69.73;100861.88;4950043;28;19938;-56
2022/09/09 04:03:50;;;;;;;;;;;;;;;17.45;69.45;100876.06;4953131;28;20953;-55
2022/09/09 04:06:16;;;;;;;;;;;;;;;17.46;69.69;100861.78;4960946;28;19926;-56
2022/09/09 04:08:41;;;;;;;;;;;;;;;17.47;69.55;100856.31;4951277;28;19922;-57
2022/09/09 04:11:07;;;;;;;;;;;;;;;17.47;69.63;100866.97;4956800;28;19953;-56
2022/09/09 04:13:40;;;;;;;;;;;;;;;17.49;69.80;100866.81;4956979;28;19930;-56
2022/09/09 04:16:05;;;;;;;;;;;;;;;17.50;69.87;100863.19;4952180;28;20505;-55
2022/09/09 04:18:31;;;;;;;;;;;;;;;17.50;69.90;100860.53;4948724;28;19984;-55
2022/09/09 04:20:57;;;;;;;;;;;;;;;17.51;69.96;100860.41;4949304;28;21568;-56
2022/09/09 04:23:24;;;;;;;;;;;;;;;17.52;69.61;100863.91;4950745;28;19922;-56
2022/09/09 04:25:50;;;;;;;;;;;;;;;17.54;69.94;100864.63;4955587;28;19949;-56
2022/09/09 04:28:16;;;;;;;;;;;;;;;17.54;69.95;100866.44;4958548;28;19930;-58
2022/09/09 04:30:42;;;;;;;;;;;;;;;17.54;69.98;100869.94;4951282;28;20433;-54
2022/09/09 04:33:09;;;;;;;;;;;;;;;17.55;69.87;100870.75;4951281;28;19930;-56
2022/09/09 04:35:34;;;;;;;;;;;;;;;17.55;69.79;100878.75;4952711;28;20409;-54
2022/09/09 04:38:02;;;;;;;;;;;;;;;17.56;70.04;100883.94;4956166;28;19947;-55
2022/09/09 04:40:28;;;;;;;;;;;;;;;17.56;70.00;100873.31;4951547;28;20052;-55
2022/09/09 04:42:53;;;;;;;;;;;;;;;17.57;70.03;100875.00;4956050;28;19979;-55
2022/09/09 04:45:18;;;;;;;;;;;;;;;17.59;69.86;100883.69;4964575;28;19933;-56
2022/09/09 04:47:43;;;;;;;;;;;;;;;17.58;69.97;100879.34;4965659;28;19925;-55
2022/09/09 04:50:09;;;;;;;;;;;;;;;17.59;70.03;100880.19;4962512;28;20061;-54
2022/09/09 04:52:35;;;;;;;;;;;;;;;17.59;69.83;100891.69;4956781;28;19934;-56
2022/09/09 04:55:00;;;;;;;;;;;;;;;17.61;69.87;100899.50;4955887;28;19923;-57
2022/09/09 04:57:26;;;;;;;;;;;;;;;17.60;69.84;100906.66;4960037;28;19930;-56
2022/09/09 04:59:51;;;;;;;;;;;;;;;17.61;70.03;100913.69;4959075;28;20160;-54
2022/09/09 05:02:16;;;;;;;;;;;;;;;17.61;69.93;100912.81;4964444;28;19934;-56
2022/09/09 05:04:42;;;;;;;;;;;;;;;17.59;69.73;100909.44;4966183;28;19934;-57
2022/09/09 05:07:07;;;;;;;;;;;;;;;17.59;69.77;100906.78;4964195;28;20469;-54
2022/09/09 05:09:33;;;;;;;;;;;;;;;17.59;70.06;100904.97;4966295;28;19930;-54
2022/09/09 05:11:58;;;;;;;;;;;;;;;17.59;69.98;100904.13;4966739;28;19921;-55
2022/09/09 05:14:24;;;;;;;;;;;;;;;17.59;69.89;100894.34;4968081;28;19930;-56
2022/09/09 05:16:49;;;;;;;;;;;;;;;17.61;70.09;100902.19;4969280;28;19930;-58
2022/09/09 05:19:18;;;;;;;;;;;;;;;17.61;69.97;100912.81;4964488;28;19925;-54
2022/09/09 05:21:44;;;;;;;;;;;;;;;17.60;69.96;100909.34;4966802;28;19934;-57
2022/09/09 05:24:10;;;;;;;;;;;;;;;17.61;69.87;100913.69;4965421;28;19934;-57
2022/09/09 05:26:36;;;;;;;;;;;;;;;17.62;69.89;100920.66;4969514;28;19933;-57
2022/09/09 05:29:01;;;;;;;;;;;;;;;17.62;69.92;100925.16;4968759;28;19926;-58
2022/09/09 05:31:28;;;;;;;;;;;;;;;17.61;69.88;100929.66;4967354;28;19926;-54
2022/09/09 05:33:53;;;;;;;;;;;;;;;17.58;69.78;100923.72;4965055;28;19930;-58
2022/09/09 05:36:20;;;;;;;;;;;;;;;17.57;69.66;100932.66;4965997;28;19941;-56
2022/09/09 05:38:46;;;;;;;;;;;;;;;17.57;69.87;100936.19;4967687;28;19922;-54
2022/09/09 05:41:12;;;;;;;;;;;;;;;17.57;69.61;100935.31;4968091;28;19934;-55
2022/09/09 05:43:38;;;;;;;;;;;;;;;17.56;69.68;100937.16;4968660;28;19965;-54
2022/09/09 05:46:08;;;;;;;;;;;;;;;17.57;69.84;100933.53;4967594;28;19965;-56
2022/09/09 05:48:34;;;;;;;;;;;;;;;17.59;69.73;100938.72;4966758;28;19942;-55
2022/09/09 05:51:00;;;;;;;;;;;;;;;17.60;69.68;100935.94;4967877;28;19918;-57
2022/09/09 05:53:32;;;;;;;;;;;;;;;17.61;69.66;100924.31;4965374;28;20201;-58
2022/09/09 05:56:04;;;;;;;;;;;;;;;17.62;69.73;100931.31;4962849;28;19922;-58
2022/09/09 05:58:30;;;;;;;;;;;;;;;17.64;69.75;100934.69;4963814;28;19945;-56
2022/09/09 06:01:06;;;;;;;;;;;;;;;17.66;69.72;100943.38;4964723;28;19926;-56
2022/09/09 06:03:32;;;;;;;;;;;;;;;17.68;69.69;100943.28;4968042;28;20197;-56
2022/09/09 06:06:01;;;;;;;;;;;;;;;17.71;69.65;100939.50;4964432;28;19918;-55
2022/09/09 06:08:27;;;;;;;;;;;;;;;17.70;69.54;100938.63;4965901;28;19926;-58
2022/09/09 06:10:52;;;;;;;;;;;;;;;17.72;69.59;100939.34;4964632;28;19926;-54
2022/09/09 06:13:17;;;;;;;;;;;;;;;17.74;69.37;100937.41;4966350;28;19926;-54
2022/09/09 06:15:52;;;;;;;;;;;;;;;17.76;69.51;100943.44;4965208;28;20345;-55
2022/09/09 06:18:18;;;;;;;;;;;;;;;17.79;69.50;100942.34;4968021;28;19922;-54
2022/09/09 06:20:53;;;;;;;;;;;;;;;17.82;69.42;100944.75;4964750;28;19925;-54
2022/09/09 06:23:20;;;;;;;;;;;;;;;17.84;69.48;100953.44;4967493;28;20425;-55
2022/09/09 06:25:45;;;;;;;;;;;;;;;17.85;69.16;100947.16;4965598;28;19976;-56
2022/09/09 06:28:11;;;;;;;;;;;;;;;17.88;69.32;100949.56;4964642;28;19988;-56
2022/09/09 06:30:36;;;;;;;;;;;;;;;17.90;69.23;100942.28;4965237;28;19930;-54
2022/09/09 06:33:02;;;;;;;;;;;;;;;17.92;69.22;100944.78;4967238;28;19957;-57
2022/09/09 06:35:28;;;;;;;;;;;;;;;17.94;69.01;100935.69;4967640;28;19980;-55
2022/09/09 06:37:53;;;;;;;;;;;;;;;17.95;69.04;100942.72;4963786;28;19925;-55
2022/09/09 06:40:19;;;;;;;;;;;;;;;17.97;69.18;100934.59;4966943;28;19933;-58
2022/09/09 06:42:44;;;;;;;;;;;;;;;18.01;69.04;100951.19;4964899;28;19934;-57
2022/09/09 06:45:10;;;;;;;;;;;;;;;18.03;68.97;100950.06;4968047;28;19922;-56
2022/09/09 06:47:36;;;;;;;;;;;;;;;18.07;69.13;100958.66;4964699;28;20353;-56
2022/09/09 06:50:01;;;;;;;;;;;;;;;18.09;68.84;100948.69;4967530;28;20032;-54
2022/09/09 06:52:27;;;;;;;;;;;;;;;18.12;68.88;100954.63;4963574;28;19933;-56
2022/09/09 06:54:53;;;;;;;;;;;;;;;18.15;68.78;100953.50;4968861;28;19926;-56
2022/09/09 06:57:18;;;;;;;;;;;;;;;18.17;68.95;100951.53;4963712;28;19933;-55
2022/09/09 06:59:44;;;;;;;;;;;;;;;18.18;68.72;100947.03;4966745;28;19926;-57
2022/09/09 07:02:09;;;;;;;;;;;;;;;18.20;68.40;100943.28;4964273;28;19989;-55
2022/09/09 07:04:35;;;;;;;;;;;;;;;18.22;68.50;100960.00;4966969;28;20041;-58
2022/09/09 07:07:00;;;;;;;;;;;;;;;18.23;68.49;100956.31;4966710;28;19934;-57
2022/09/09 07:09:27;;;;;;;;;;;;;;;18.27;68.67;100951.59;4967642;28;19964;-55
2022/09/09 07:11:52;;;;;;;;;;;;;;;18.31;68.39;100949.50;4965548;28;20385;-56
2022/09/09 07:14:18;;;;;;;;;;;;;;;18.34;68.55;100951.91;4965860;28;19937;-54
2022/09/09 07:16:44;;;;;;;;;;;;;;;18.36;68.59;100949.94;4965670;28;19937;-55
2022/09/09 07:19:10;;;;;;;;;;;;;;;18.39;68.36;100947.00;4964124;28;19977;-57
2022/09/09 07:21:35;;;;;;;;;;;;;;;18.42;68.24;100947.59;4962933;28;20394;-55
2022/09/09 07:24:01;;;;;;;;;;;;;;;18.45;68.22;100949.13;4961407;28;19996;-56
2022/09/09 07:26:28;;;;;;;;;;;;;;;18.48;68.51;100962.19;4964277;28;19973;-54
2022/09/09 07:28:55;;;;;;;;;;;;;;;18.48;68.29;100959.53;4965618;28;19965;-55
2022/09/09 07:31:22;;;;;;;;;;;;;;;18.51;68.09;100958.41;4961695;28;20324;-55
2022/09/09 07:33:48;;;;;;;;;;;;;;;18.52;68.22;100960.09;4964100;28;19918;-56
2022/09/09 07:36:17;;;;;;;;;;;;;;;18.54;68.45;100963.47;4967256;28;20285;-55
2022/09/09 07:38:47;;;;;;;;;;;;;;;18.57;68.36;100958.69;4965407;28;20013;-56
2022/09/09 07:41:17;;;;;;;;;;;;;;;18.64;68.23;100963.50;4964018;28;19922;-57
2022/09/09 07:43:43;;;;;;;;;;;;;;;18.69;68.21;100963.91;4964400;28;19997;-58
2022/09/09 07:46:10;;;;;;;;;;;;;;;18.73;67.85;100965.34;4967287;28;19922;-54
2022/09/09 07:48:36;;;;;;;;;;;;;;;18.78;67.81;100975.56;4964743;28;19969;-58
2022/09/09 07:51:05;;;;;;;;;;;;;;;18.79;67.85;100967.47;4964943;28;19922;-54
2022/09/09 07:53:31;;;;;;;;;;;;;;;18.81;67.70;100970.84;4962740;28;19926;-56
2022/09/09 07:56:02;;;;;;;;;;;;;;;18.84;67.62;100969.72;4960406;28;20226;-54
2022/09/09 07:58:27;;;;;;;;;;;;;;;18.86;67.80;100968.59;4961195;28;19933;-55
2022/09/09 08:00:52;;;;;;;;;;;;;;;18.88;67.59;100966.63;4960696;28;19926;-54
2022/09/09 08:03:18;;;;;;;;;;;;;;;18.92;67.93;100963.69;4961150;28;20357;-57
2022/09/09 08:05:43;;;;;;;;;;;;;;;18.98;67.89;100971.19;4964977;28;20370;-54
2022/09/09 08:08:08;;;;;;;;;;;;;;;19.01;67.54;100968.22;4965175;28;19926;-54
2022/09/09 08:10:34;;;;;;;;;;;;;;;19.05;67.56;100972.28;4964591;28;19927;-54
2022/09/09 08:12:59;;;;;;;;;;;;;;;19.09;67.34;100973.72;4966099;28;20241;-54
2022/09/09 08:15:24;;;;;;;;;;;;;;;19.14;67.25;100976.78;4963715;28;20361;-55
2022/09/09 08:17:50;;;;;;;;;;;;;;;19.16;67.37;100966.81;4964629;28;19992;-55
2022/09/09 08:20:15;;;;;;;;;;;;;;;19.20;67.45;100964.75;4960646;28;19931;-54
2022/09/09 08:22:41;;;;;;;;;;;;;;;19.24;67.34;100970.63;4959551;28;19926;-55
2022/09/09 08:25:08;;;;;;;;;;;;;;;19.26;67.47;100964.16;4963620;28;19949;-54
2022/09/09 08:27:33;;;;;;;;;;;;;;;19.29;67.28;100968.38;4963696;28;20060;-57
2022/09/09 08:29:59;;;;;;;;;;;;;;;19.32;67.23;100968.97;4964475;28;20005;-57
2022/09/09 08:32:24;;;;;;;;;;;;;;;19.38;66.94;100966.69;4964411;28;20360;-57
2022/09/09 08:34:51;;;;;;;;;;;;;;;19.40;67.04;100975.41;4967807;28;20064;-56
2022/09/09 08:37:16;;;;;;;;;;;;;;;19.40;66.87;100973.59;4970454;28;19926;-57
2022/09/09 08:39:41;;;;;;;;;;;;;;;19.40;67.03;100976.25;4968057;28;20336;-56
2022/09/09 08:42:36;;;;;;;;;;;;;;;19.41;66.65;100972.59;4968141;28;20360;-56
2022/09/09 08:45:19;;;;;;;;;;;;;;;19.44;66.56;100980.31;4946613;28;20317;-56
2022/09/09 08:47:53;;;;;;;;;;;;;;;19.44;66.36;100982.97;4967052;28;19922;-56
2022/09/09 08:50:19;;;;;;;;;;;;;;;19.44;66.52;100984.81;4965892;28;20365;-59
2022/09/09 08:52:54;;;;;;;;;;;;;;;19.46;66.61;100996.19;4968410;28;20016;-57
2022/09/09 08:55:22;;;;;;;;;;;;;;;19.46;66.62;100991.69;4969121;28;19922;-57
2022/09/09 08:57:53;;;;;;;;;;;;;;;19.45;66.35;100990.00;4968965;28;20441;-57
2022/09/09 09:00:18;;;;;;;;;;;;;;;19.45;66.62;100987.31;4968383;28;20360;-57
2022/09/09 09:02:53;;;;;;;;;;;;;;;19.46;66.67;101002.34;4969417;28;19926;-57
2022/09/09 09:05:18;;;;;;;;;;;;;;;19.46;66.41;100994.34;4971405;28;20056;-56
2022/09/09 09:07:49;;;;;;;;;;;;;;;19.46;66.11;100991.69;4967574;28;19961;-56
2022/09/09 09:10:18;;;;;;;;;;;;;;;19.47;66.24;100993.38;4969036;28;19926;-56
2022/09/09 09:12:44;;;;;;;;;;;;;;;19.45;66.47;101003.34;4966932;28;20057;-56
2022/09/09 09:15:18;;;;;;;;;;;;;;;19.47;66.30;101004.03;4965136;28;19972;-56
2022/09/09 09:17:44;;;;;;;;;;;;;;;19.48;66.52;100999.56;4966197;28;19926;-56
2022/09/09 09:20:14;;;;;;;;;;;;;;;19.47;66.40;100998.72;4961045;28;19926;-58
2022/09/09 09:22:47;;;;;;;;;;;;;;;19.47;66.45;100997.88;4967685;28;19930;-56
2022/09/09 09:25:23;;;;;;;;;;;;;;;19.47;66.42;100996.03;4969363;28;20132;-59
2022/09/09 09:27:55;;;;;;;;;;;;;;;19.48;66.02;100995.06;4967571;28;19949;-57
2022/09/09 09:30:22;;;;;;;;;;;;;;;19.49;66.26;100994.06;4966311;28;20389;-56
2022/09/09 09:33:13;;;;;;;;;;;;;;;19.52;66.13;100995.63;4966204;28;19966;-57
2022/09/09 09:35:39;;;;;;;;;;;;;;;19.53;66.02;101001.81;4963700;28;19933;-56
2022/09/09 09:38:17;;;;;;;;;;;;;;;19.54;66.12;101000.81;4968509;28;19922;-56
2022/09/09 09:40:50;;;;;;;;;;;;;;;19.55;66.10;100995.34;4967558;28;19922;-56
2022/09/09 09:43:20;;;;;;;;;;;;;;;19.56;66.08;101004.19;4966899;28;20357;-56
2022/09/09 09:45:45;;;;;;;;;;;;;;;19.57;66.31;101005.88;4967293;28;19922;-56
2022/09/09 09:48:11;;;;;;;;;;;;;;;19.56;66.58;101002.34;4965895;28;19981;-56
2022/09/09 09:50:47;;;;;;;;;;;;;;;19.59;66.17;100998.56;4967883;28;19926;-56
2022/09/09 09:53:24;;;;;;;;;;;;;;;19.62;66.41;100995.59;4967077;28;20333;-57
2022/09/09 09:55:55;;;;;;;;;;;;;;;19.68;66.33;101000.41;4966015;28;19926;-56
2022/09/09 09:58:21;;;;;;;;;;;;;;;19.73;66.46;100995.47;4966390;28;20029;-57
2022/09/09 10:00:51;;;;;;;;;;;;;;;19.78;66.38;100995.88;4966908;28;20009;-57
2022/09/09 10:03:27;;;;;;;;;;;;;;;19.87;65.90;100993.38;4969000;28;19930;-56
2022/09/09 10:05:53;;;;;;;;;;;;;;;19.91;65.94;100994.75;4969641;28;20453;-56
2022/09/09 10:08:19;;;;;;;;;;;;;;;19.96;66.09;100992.50;4968086;28;20025;-57
2022/09/09 10:10:45;;;;;;;;;;;;;;;20.00;65.90;100993.91;4968376;28;20449;-60
2022/09/09 10:13:13;;;;;;;;;;;;;;;20.06;65.69;100995.97;4967693;28;19926;-57
2022/09/09 10:15:50;;;;;;;;;;;;;;;20.12;65.86;100999.06;4967587;28;19918;-56
2022/09/09 10:18:18;;;;;;;;;;;;;;;20.19;65.63;100995.69;4969191;28;19944;-56
2022/09/09 10:20:51;;;;;;;;;;;;;;;20.28;65.71;101001.97;4967913;28;19968;-56
2022/09/09 10:23:35;;;;;;;;;;;;;;;20.38;65.31;100991.25;4967854;28;19933;-56
2022/09/09 10:26:09;;;;;;;;;;;;;;;20.48;65.30;100993.88;4968296;28;20024;-56
2022/09/09 10:28:54;;;;;;;;;;;;;;;20.59;64.84;101003.53;4968189;28;20026;-57
2022/09/09 10:31:31;;;;;;;;;;;;;;;20.68;64.86;100994.63;4965227;28;20390;-58
2022/09/09 10:34:06;;;;;;;;;;;;;;;20.77;64.72;100991.09;4966930;28;19930;-56
2022/09/09 10:36:32;;;;;;;;;;;;;;;20.83;64.46;100992.31;4967665;28;19953;-57
2022/09/09 10:39:00;;;;;;;;;;;;;;;20.90;64.56;100990.75;4967206;28;19922;-56
2022/09/09 10:41:52;;;;;;;;;;;;;;;20.97;64.25;100996.31;4965944;28;19933;-57
2022/09/09 10:44:23;;;;;;;;;;;;;;;21.02;64.09;100999.41;4966471;28;19941;-57
2022/09/09 10:46:49;;;;;;;;;;;;;;;21.08;64.06;101000.63;4965641;28;19921;-57
2022/09/09 10:49:33;;;;;;;;;;;;;;;21.12;63.41;101001.97;4965818;28;19933;-56
2022/09/09 10:52:10;;;;;;;;;;;;;;;21.16;63.33;100995.34;4965347;28;19928;-55
2022/09/09 10:54:55;;;;;;;;;;;;;;;21.20;63.01;100999.41;4964747;28;20349;-57
2022/09/09 10:57:34;;;;;;;;;;;;;;;21.24;63.09;100992.75;4963598;28;19929;-58
2022/09/09 11:00:04;;;;;;;;;;;;;;;21.28;62.76;100993.28;4966906;28;20313;-56
2022/09/09 11:02:30;;;;;;;;;;;;;;;21.31;62.52;100998.34;4966325;28;19926;-56
2022/09/09 11:04:55;;;;;;;;;;;;;;;21.34;62.54;101003.34;4964786;28;19930;-60
2022/09/09 11:07:32;;;;;;;;;;;;;;;21.36;62.37;101000.56;4966442;28;19937;-57
2022/09/09 11:10:01;;;;;;;;;;;;;;;21.38;62.25;101004.75;4966919;28;20016;-56
2022/09/09 11:12:28;;;;;;;;;;;;;;;21.40;62.13;101001.94;4965811;28;19930;-56
2022/09/09 11:14:57;;;;;;;;;;;;;;;21.41;61.87;101007.13;4967772;28;19929;-56
2022/09/09 11:17:25;;;;;;;;;;;;;;;21.44;61.84;101008.63;4965472;28;20313;-56
2022/09/09 11:19:51;;;;;;;;;;;;;;;21.47;61.41;101011.00;4966633;28;19933;-57
2022/09/09 11:22:34;;;;;;;;;;;;;;;21.52;61.44;101010.53;4965572;28;20297;-56
2022/09/09 11:25:00;;;;;;;;;;;;;;;21.59;61.14;101007.09;4963152;28;20142;-56
2022/09/09 11:27:27;;;;;;;;;;;;;;;21.66;60.88;101011.88;4966352;28;19965;-59
2022/09/09 11:29:53;;;;;;;;;;;;;;;21.70;60.88;101011.41;4965750;28;20342;-58
2022/09/09 11:32:21;;;;;;;;;;;;;;;21.78;60.82;101005.28;4962468;28;20378;-57
2022/09/09 11:35:05;;;;;;;;;;;;;;;21.86;60.63;101008.00;4963190;28;20496;-56
2022/09/09 11:37:34;;;;;;;;;;;;;;;21.94;60.56;100999.19;4964328;28;19949;-57
2022/09/09 11:40:14;;;;;;;;;;;;;;;22.02;60.27;101009.09;4963210;28;20533;-57
2022/09/09 11:42:39;;;;;;;;;;;;;;;22.07;59.87;101004.97;4963696;28;19926;-57
2022/09/09 11:45:19;;;;;;;;;;;;;;;22.11;59.77;101010.00;4966478;28;19937;-57
2022/09/09 11:47:51;;;;;;;;;;;;;;;22.12;59.43;101000.97;4961683;28;20000;-59
2022/09/09 11:50:18;;;;;;;;;;;;;;;22.13;59.43;100997.28;4964754;28;20633;-59
2022/09/09 11:52:47;;;;;;;;;;;;;;;22.14;59.46;100994.47;4963104;28;19924;-57
2022/09/09 11:55:13;;;;;;;;;;;;;;;;;;4961916;28;19929;-59
2022/09/09 11:57:38;;;;;;;;;;;;;;;22.19;59.21;100991.31;4963641;28;19922;-56
2022/09/09 12:00:05;;;;;;;;;;;;;;;22.20;59.26;100995.66;4965485;28;19937;-57
2022/09/09 12:02:33;;;;;;;;;;;;;;;22.23;59.31;100998.88;4961533;28;19934;-58
2022/09/09 12:04:58;;;;;;;;;;;;;;;22.28;59.01;100998.38;4962256;28;20720;-58
2022/09/09 12:07:24;;;;;;;;;;;;;;;22.34;59.09;100988.84;4961043;28;20483;-56
2022/09/09 12:09:52;;;;;;;;;;;;;;;22.39;58.92;100987.38;4962605;28;19929;-58
2022/09/09 12:12:22;;;;;;;;;;;;;;;22.45;58.65;100985.94;4963156;28;19945;-57
2022/09/09 12:15:01;;;;;;;;;;;;;;;22.47;58.44;100981.25;4965933;28;19926;-57
2022/09/09 12:17:27;;;;;;;;;;;;;;;22.46;58.33;100979.56;4961314;28;19930;-56
2022/09/09 12:20:09;;;;;;;;;;;;;;;22.46;58.16;100974.19;4963780;28;19926;-56
2022/09/09 12:22:46;;;;;;;;;;;;;;;22.49;58.21;100976.56;4964104;28;19926;-55
2022/09/09 12:25:18;;;;;;;;;;;;;;;22.56;58.28;100981.28;4964936;28;20356;-57
2022/09/09 12:27:49;;;;;;;;;;;;;;;22.63;58.09;100972.44;4963540;28;19926;-57
2022/09/09 12:30:15;;;;;;;;;;;;;;;22.67;58.04;100967.56;4964888;28;19926;-56
2022/09/09 12:32:41;;;;;;;;;;;;;;;22.73;57.92;100961.56;4962951;28;19941;-56
2022/09/09 12:35:09;;;;;;;;;;;;;;;22.78;57.83;100964.59;4965091;28;19926;-57
2022/09/09 12:37:43;;;;;;;;;;;;;;;22.86;57.68;100968.31;4963326;28;20436;-56
2022/09/09 12:40:27;;;;;;;;;;;;;;;22.89;57.61;100965.28;4964198;28;19918;-59
2022/09/09 12:42:52;;;;;;;;;;;;;;;22.92;57.35;100967.63;4964160;28;19993;-56
2022/09/09 12:45:22;;;;;;;;;;;;;;;22.91;57.30;100966.81;4963404;28;20330;-57
2022/09/09 12:47:47;;;;;;;;;;;;;;;22.91;57.26;100963.28;4964353;28;19933;-57